Time;durP1;ratioP1;P1;durP2;ratioP2;P2;SDS_P1;SDS_P2;PMS_P1;PMS_P2;Temp;Humidity;BMP_temperature;BMP_pressure;BME280_temperature;BME280_humidity;BME280_pressure;Samples;Min_cycle;Max_cycle;Signal;HPM_P1;HPM_P2
2021/12/15 20:55:46;;;;;;;;;21.33;20.00;;;;;;;;5158714;27;1541190;-76
2021/12/15 20:58:12;;;;;;;;;20.33;18.33;;;;;;;;5198941;27;22725;-72
2021/12/15 21:00:40;;;;;;;;;24.33;18.67;;;;;;;;5199928;27;12630;-75
2021/12/15 21:03:07;;;;;;;;;20.25;17.00;;;;;;;;5200106;27;11522;-76
2021/12/15 21:05:42;;;;;;;;;17.75;17.25;;;;;;;;5199995;27;11488;-77
2021/12/15 21:08:08;;;;;;;;;20.25;14.50;;;;;;;;5200123;27;13858;-77
2021/12/15 21:10:36;;;;;;;;;18.25;14.75;;;;;;;;5179843;27;15522;-76
2021/12/15 21:13:02;;;;;;;;;17.25;15.00;;;;;;;;5200235;27;13571;-76
2021/12/15 21:15:28;;;;;;;;;18.50;17.75;;;;;;;;5199320;27;11443;-76
2021/12/15 21:17:53;;;;;;;;;16.25;16.25;;;;;;;;5199057;27;11580;-75
2021/12/15 21:20:20;;;;;;;;;19.00;18.00;;;;;;;;5199405;27;11480;-76
2021/12/15 21:22:45;;;;;;;;;21.50;20.00;;;;;;;;5200408;27;11870;-77
2021/12/15 21:25:11;;;;;;;;;20.75;18.25;;;;;;;;5199168;27;12347;-75
2021/12/15 21:27:37;;;;;;;;;21.25;19.25;;;;;;;;5199232;27;12209;-77
2021/12/15 21:30:06;;;;;;;;;22.75;21.25;;;;;;;;5199909;27;9787;-77
2021/12/15 21:32:32;;;;;;;;;25.00;24.00;;;;;;;;5199925;27;11544;-76
2021/12/15 21:34:57;;;;;;;;;20.75;20.50;;;;;;;;5198261;27;13074;-75
2021/12/15 21:37:23;;;;;;;;;22.75;22.75;;;;;;;;5198174;27;11624;-75
2021/12/15 21:39:48;;;;;;;;;17.25;16.75;;;;;;;;5198684;27;11378;-75
2021/12/15 21:42:14;;;;;;;;;20.75;19.75;;;;;;;;5197759;27;11360;-76
2021/12/15 21:44:40;;;;;;;;;25.75;21.00;;;;;;;;5199408;27;11559;-75
2021/12/15 21:47:06;;;;;;;;;25.00;23.50;;;;;;;;5199248;27;12370;-75
2021/12/15 21:49:32;;;;;;;;;23.00;19.75;;;;;;;;5199027;27;10569;-75
2021/12/15 21:51:57;;;;;;;;;20.75;20.50;;;;;;;;5197288;27;13644;-75
2021/12/15 21:54:23;;;;;;;;;15.50;15.25;;;;;;;;5198945;27;12666;-75
2021/12/15 21:56:48;;;;;;;;;19.00;14.00;;;;;;;;5198702;27;13203;-75
2021/12/15 21:59:14;;;;;;;;;19.75;17.75;;;;;;;;5199570;27;11356;-75
2021/12/15 22:01:40;;;;;;;;;18.50;18.25;;;;;;;;5198583;27;10334;-73
2021/12/15 22:04:07;;;;;;;;;19.75;19.50;;;;;;;;5179640;27;12887;-73
2021/12/15 22:06:32;;;;;;;;;27.00;23.33;;;;;;;;5187952;27;11941;-75
2021/12/15 22:08:58;;;;;;;;;25.33;22.00;;;;;;;;5184940;27;13220;-75
2021/12/15 22:11:24;;;;;;;;;28.75;22.00;;;;;;;;5140965;27;11512;-74
2021/12/15 22:13:51;;;;;;;;;23.00;20.00;;;;;;;;5162665;27;11501;-75
2021/12/15 22:16:17;;;;;;;;;25.67;24.33;;;;;;;;5164328;27;10451;-75
2021/12/15 22:18:45;;;;;;;;;31.67;22.67;;;;;;;;5163653;27;11637;-75
2021/12/15 22:21:22;;;;;;;;;23.67;21.67;;;;;;;;5162872;27;13482;-75
2021/12/15 22:23:48;;;;;;;;;21.33;21.33;;;;;;;;5163011;27;11482;-75
2021/12/15 22:26:14;;;;;;;;;23.00;22.00;;;;;;;;5163865;27;12153;-74
2021/12/15 22:28:39;;;;;;;;;24.00;23.33;;;;;;;;5163019;27;11456;-75
2021/12/15 22:31:05;;;;;;;;;28.00;24.67;;;;;;;;5162337;27;11485;-75
2021/12/15 22:33:31;;;;;;;;;26.67;25.00;;;;;;;;5163061;27;11470;-76
2021/12/15 22:35:57;;;;;;;;;23.33;23.00;;;;;;;;5163086;27;11462;-78
2021/12/15 22:38:24;;;;;;;;;22.25;17.00;;;;;;;;5163631;27;11545;-74
2021/12/15 22:40:51;;;;;;;;;19.75;15.00;;;;;;;;5111712;27;11492;-74
2021/12/15 22:43:17;;;;;;;;;20.33;20.33;;;;;;;;5141793;27;11603;-73
2021/12/15 22:45:42;;;;;;;;;21.67;21.33;;;;;;;;5142888;27;14539;-74
2021/12/15 22:48:07;;;;;;;;;17.25;15.25;;;;;;;;5142713;27;10326;-75
2021/12/15 22:50:33;;;;;;;;;21.33;19.33;;;;;;;;5142868;27;12239;-74
2021/12/15 22:52:58;;;;;;;;;23.33;22.00;;;;;;;;5142696;27;10383;-76
2021/12/15 22:55:24;;;;;;;;;19.33;19.00;;;;;;;;5141043;27;12392;-74
2021/12/15 22:57:50;;;;;;;;;24.67;19.00;;;;;;;;5141241;27;10695;-74
2021/12/15 23:00:15;;;;;;;;;21.67;19.00;;;;;;;;5141449;27;10173;-73
2021/12/15 23:02:40;;;;;;;;;26.33;22.33;;;;;;;;5141626;27;8787;-73
2021/12/15 23:05:06;;;;;;;;;28.33;23.33;;;;;;;;5142464;27;12215;-73
2021/12/15 23:07:32;;;;;;;;;29.33;23.00;;;;;;;;5142172;27;8886;-73
2021/12/15 23:09:58;;;;;;;;;28.33;24.33;;;;;;;;5141819;27;11451;-73
2021/12/15 23:12:24;;;;;;;;;26.33;23.00;;;;;;;;5142835;27;11540;-72
2021/12/15 23:14:51;;;;;;;;;26.33;25.67;;;;;;;;5142222;27;11525;-73
2021/12/15 23:17:20;;;;;;;;;27.00;22.33;;;;;;;;5121856;27;11426;-73
2021/12/15 23:19:46;;;;;;;;;23.00;21.33;;;;;;;;5141739;27;11464;-72
2021/12/15 23:22:11;;;;;;;;;20.00;15.33;;;;;;;;5141670;27;11418;-74
2021/12/15 23:24:37;;;;;;;;;28.33;26.00;;;;;;;;5141805;27;10043;-73
2021/12/15 23:27:03;;;;;;;;;26.33;19.00;;;;;;;;5123721;27;12639;-74
2021/12/15 23:29:30;;;;;;;;;19.67;18.00;;;;;;;;5142269;27;9799;-73
2021/12/15 23:31:56;;;;;;;;;17.33;17.33;;;;;;;;5141347;27;13692;-73
2021/12/15 23:34:22;;;;;;;;;22.00;19.00;;;;;;;;5141420;27;11415;-73
2021/12/15 23:36:47;;;;;;;;;24.00;19.33;;;;;;;;5142347;27;13399;-73
2021/12/15 23:39:42;;;;;;;;;26.67;23.00;;;;;;;;5142386;27;11434;-74
